createdAt,value
2018-06-09T00:01:37.822Z,83.40
2018-06-09T00:04:06.125Z,83.60
2018-06-09T00:06:34.404Z,83.80
2018-06-09T00:09:02.983Z,83.90
2018-06-09T00:11:31.289Z,83.90
2018-06-09T00:13:59.520Z,84.00
2018-06-09T00:16:27.759Z,84.20
2018-06-09T00:18:56.070Z,84.20
2018-06-09T00:21:24.315Z,84.80
2018-06-09T00:23:53.609Z,83.90
2018-06-09T00:26:22.749Z,84.00
2018-06-09T00:28:51.074Z,84.20
2018-06-09T00:31:19.383Z,84.50
2018-06-09T00:33:47.795Z,84.80
2018-06-09T00:36:16.163Z,84.80
2018-06-09T00:38:44.420Z,85.10
2018-06-09T00:41:12.799Z,85.20
2018-06-09T00:43:41.146Z,85.30
2018-06-09T00:46:09.386Z,85.50
2018-06-09T00:48:37.722Z,85.60
2018-06-09T00:51:06.249Z,85.80
2018-06-09T00:53:34.525Z,85.80
2018-06-09T00:56:14.112Z,86.10
2018-06-09T00:58:42.445Z,86.10
2018-06-09T01:01:11.362Z,86.30
2018-06-09T01:03:39.661Z,86.20
2018-06-09T01:06:07.930Z,86.20
2018-06-09T01:08:36.272Z,86.20
2018-06-09T01:11:04.652Z,86.30
2018-06-09T01:13:32.965Z,86.60
2018-06-09T01:16:01.496Z,86.70
2018-06-09T01:18:31.392Z,86.70
2018-06-09T01:20:59.673Z,86.80
2018-06-09T01:23:27.956Z,86.80
2018-06-09T01:25:56.238Z,86.90
2018-06-09T01:28:24.567Z,87.00
2018-06-09T01:30:52.833Z,87.10
2018-06-09T01:33:21.186Z,87.50
2018-06-09T01:35:49.419Z,87.40
2018-06-09T01:38:17.678Z,87.50
2018-06-09T01:40:45.941Z,87.50
2018-06-09T01:43:14.334Z,87.60
2018-06-09T01:45:42.633Z,87.30
2018-06-09T01:48:17.312Z,87.10
2018-06-09T01:50:45.585Z,87.20
2018-06-09T01:53:13.880Z,87.10
2018-06-09T01:56:01.408Z,86.90
2018-06-09T01:58:29.769Z,86.60
2018-06-09T02:01:04.696Z,86.60
2018-06-09T02:03:33.304Z,86.80
2018-06-09T02:06:01.668Z,86.90
2018-06-09T02:08:30.093Z,87.10
2018-06-09T02:10:58.358Z,87.10
2018-06-09T02:15:55.245Z,87.20
2018-06-09T02:18:23.590Z,87.30
2018-06-09T02:23:19.903Z,87.40
2018-06-09T02:25:48.127Z,87.60
2018-06-09T02:28:16.397Z,87.60
2018-06-09T02:30:44.670Z,87.50
2018-06-09T02:33:13.026Z,87.60
2018-06-09T02:35:41.288Z,87.80
2018-06-09T02:38:09.673Z,88.00
2018-06-09T02:40:37.944Z,88.00
2018-06-09T02:43:06.223Z,88.20
2018-06-09T02:45:34.546Z,88.50
2018-06-09T02:48:02.827Z,88.40
2018-06-09T02:50:31.139Z,88.40
2018-06-09T02:52:59.394Z,88.50
2018-06-09T02:55:27.710Z,88.40
2018-06-09T02:57:56.050Z,88.30
2018-06-09T03:00:24.476Z,88.10
2018-06-09T03:02:52.788Z,88.20
2018-06-09T03:05:21.062Z,87.80
2018-06-09T03:07:49.295Z,87.70
2018-06-09T03:10:17.584Z,87.80
2018-06-09T03:12:45.847Z,88.00
2018-06-09T03:15:14.202Z,87.80
2018-06-09T03:17:42.458Z,88.30
2018-06-09T03:20:10.852Z,87.60
2018-06-09T03:22:39.127Z,87.60
2018-06-09T03:25:07.386Z,87.50
2018-06-09T03:27:35.773Z,87.50
2018-06-09T03:30:04.162Z,87.60
2018-06-09T03:32:32.441Z,87.00
2018-06-09T03:35:00.649Z,87.30
2018-06-09T03:37:28.884Z,87.20
2018-06-09T03:39:57.138Z,87.10
2018-06-09T03:42:25.417Z,87.00
2018-06-09T03:44:53.694Z,86.70
2018-06-09T03:47:22.037Z,86.60
2018-06-09T03:49:50.277Z,86.50
2018-06-09T03:52:18.545Z,86.30
2018-06-09T03:54:46.818Z,85.80
2018-06-09T03:57:15.120Z,86.30
2018-06-09T03:59:43.385Z,86.20
2018-06-09T04:02:11.725Z,86.20
2018-06-09T04:04:40.006Z,86.10
2018-06-09T04:07:08.214Z,86.20
2018-06-09T04:09:36.618Z,85.90
2018-06-09T04:12:04.911Z,86.20
2018-06-09T04:14:33.169Z,86.00
2018-06-09T04:17:01.487Z,85.90
2018-06-09T04:19:29.779Z,85.90
2018-06-09T04:21:58.020Z,85.90
2018-06-09T04:24:26.281Z,86.00
2018-06-09T04:26:54.554Z,86.30
2018-06-09T04:29:22.878Z,86.10
2018-06-09T04:31:51.182Z,86.50
2018-06-09T04:34:19.522Z,86.50
2018-06-09T04:36:47.793Z,86.40
2018-06-09T04:39:16.066Z,85.90
2018-06-09T04:41:44.258Z,85.70
2018-06-09T04:44:12.471Z,85.50
2018-06-09T04:46:40.950Z,85.20
2018-06-09T04:49:09.189Z,84.90
2018-06-09T04:51:37.477Z,84.70
2018-06-09T04:54:05.753Z,84.40
2018-06-09T04:56:33.950Z,84.20
2018-06-09T04:59:02.159Z,83.90
2018-06-09T05:01:30.370Z,84.00
2018-06-09T05:03:58.631Z,83.70
2018-06-09T05:06:26.853Z,83.50
2018-06-09T05:08:55.065Z,83.30
2018-06-09T05:13:51.252Z,82.80
2018-06-09T05:16:19.489Z,82.70
2018-06-09T05:18:47.698Z,82.50
2018-06-09T05:21:15.937Z,82.50
2018-06-09T05:23:44.238Z,82.40
2018-06-09T05:26:12.493Z,82.70
2018-06-09T05:28:40.717Z,82.80
2018-06-09T05:31:08.977Z,83.00
2018-06-09T05:33:37.236Z,83.30
2018-06-09T05:36:05.463Z,83.20
2018-06-09T05:38:33.671Z,82.90
2018-06-09T05:41:01.914Z,82.60
2018-06-09T05:43:30.135Z,82.50
2018-06-09T05:45:58.354Z,82.40
2018-06-09T05:48:26.665Z,82.30
2018-06-09T05:50:54.925Z,82.30
2018-06-09T05:53:23.217Z,82.70
2018-06-09T05:55:51.539Z,82.90
2018-06-09T05:58:19.786Z,83.40
2018-06-09T06:03:16.074Z,83.40
2018-06-09T06:08:12.709Z,82.80
2018-06-09T06:10:41.050Z,82.30
2018-06-09T06:13:09.450Z,81.90
2018-06-09T06:15:37.735Z,81.70
2018-06-09T06:18:05.975Z,81.20
2018-06-09T06:20:34.274Z,81.20
2018-06-09T06:23:02.549Z,80.50
2018-06-09T06:25:30.897Z,79.80
2018-06-09T06:27:59.170Z,79.60
2018-06-09T06:30:27.418Z,79.80
2018-06-09T06:32:55.726Z,80.20
2018-06-09T06:35:23.981Z,79.70
2018-06-09T06:37:52.330Z,79.60
2018-06-09T06:40:20.626Z,79.30
2018-06-09T06:42:49.166Z,79.50
2018-06-09T06:45:18.038Z,79.40
2018-06-09T06:47:46.433Z,79.30
2018-06-09T06:50:14.749Z,79.50
2018-06-09T06:52:43.542Z,79.70
2018-06-09T06:55:11.855Z,80.20
2018-06-09T06:57:40.217Z,79.50
2018-06-09T07:00:08.514Z,79.50
2018-06-09T07:02:36.836Z,79.40
2018-06-09T07:05:05.150Z,79.40
2018-06-09T07:07:33.538Z,79.60
2018-06-09T07:10:01.930Z,79.40
2018-06-09T07:12:30.151Z,79.80
2018-06-09T07:14:58.449Z,79.60
2018-06-09T07:17:26.703Z,79.60
2018-06-09T07:19:55.079Z,79.40
2018-06-09T07:22:23.408Z,79.20
2018-06-09T07:24:51.729Z,79.10
2018-06-09T07:27:20.011Z,78.50
2018-06-09T07:29:48.254Z,77.50
2018-06-09T07:32:16.557Z,77.40
2018-06-09T07:34:44.783Z,76.60
2018-06-09T07:37:13.431Z,76.50
2018-06-09T07:39:41.781Z,76.40
2018-06-09T07:42:10.083Z,75.90
2018-06-09T07:44:38.350Z,75.10
2018-06-09T07:47:06.644Z,74.10
2018-06-09T07:49:36.410Z,72.70
2018-06-09T07:52:04.639Z,72.30
2018-06-09T07:54:32.911Z,71.20
2018-06-09T07:57:01.300Z,69.50
2018-06-09T07:59:30.313Z,67.30
2018-06-09T08:01:58.646Z,66.30
2018-06-09T08:04:26.908Z,65.90
2018-06-09T08:06:55.338Z,65.40
2018-06-09T08:09:23.588Z,64.80
2018-06-09T08:11:52.038Z,63.40
2018-06-09T08:14:20.414Z,64.20
2018-06-09T08:16:48.723Z,64.70
2018-06-09T08:19:17.010Z,63.30
2018-06-09T08:21:45.259Z,62.80
2018-06-09T08:24:13.510Z,62.80
2018-06-09T08:26:41.747Z,60.90
2018-06-09T08:29:10.106Z,58.10
2018-06-09T08:31:38.539Z,55.80
2018-06-09T08:34:06.888Z,53.00
2018-06-09T08:36:35.358Z,52.60
2018-06-09T08:39:04.331Z,49.80
2018-06-09T08:41:32.934Z,47.30
2018-06-09T08:44:01.189Z,44.90
2018-06-09T08:46:29.628Z,43.30
2018-06-09T08:48:57.962Z,42.20
2018-06-09T08:51:26.488Z,43.20
2018-06-09T08:53:55.018Z,43.90
2018-06-09T08:56:23.372Z,42.00
2018-06-09T08:58:51.675Z,41.80
2018-06-09T09:01:20.306Z,42.50
2018-06-09T09:03:48.841Z,42.80
2018-06-09T09:06:17.256Z,43.40
2018-06-09T09:08:45.666Z,43.00
2018-06-09T09:11:13.946Z,43.40
2018-06-09T09:16:10.273Z,46.60
2018-06-09T09:18:38.647Z,47.60
2018-06-09T09:21:07.038Z,48.50
2018-06-09T09:23:35.382Z,48.90
2018-06-09T09:26:03.714Z,48.70
2018-06-09T09:28:32.016Z,49.40
2018-06-09T09:31:00.473Z,49.60
2018-06-09T09:33:28.754Z,49.90
2018-06-09T09:35:57.398Z,50.70
2018-06-09T09:38:25.879Z,51.10
2018-06-09T09:40:54.251Z,51.70
2018-06-09T09:43:22.571Z,52.10
2018-06-09T09:45:50.881Z,52.50
2018-06-09T09:48:19.120Z,52.90
2018-06-09T09:50:47.398Z,53.40
2018-06-09T09:53:15.788Z,53.30
2018-06-09T09:55:44.231Z,53.30
2018-06-09T09:58:12.537Z,53.40
2018-06-09T10:00:41.078Z,53.60
2018-06-09T10:03:09.368Z,53.40
2018-06-09T10:05:37.805Z,53.90
2018-06-09T10:08:06.037Z,53.90
2018-06-09T10:10:34.350Z,52.80
2018-06-09T10:13:02.650Z,53.50
2018-06-09T10:15:31.025Z,51.90
2018-06-09T10:17:59.697Z,51.60
2018-06-09T10:20:28.119Z,50.70
2018-06-09T10:22:56.860Z,49.80
2018-06-09T10:25:25.150Z,49.20
2018-06-09T10:27:53.491Z,48.80
2018-06-09T10:32:49.808Z,49.60
2018-06-09T10:35:18.109Z,49.30
2018-06-09T10:37:46.367Z,49.30
2018-06-09T10:40:14.705Z,50.10
2018-06-09T10:42:43.074Z,50.80
2018-06-09T10:45:11.479Z,50.80
2018-06-09T10:47:39.705Z,51.20
2018-06-09T10:50:08.050Z,51.60
2018-06-09T10:52:36.430Z,51.30
2018-06-09T10:55:04.809Z,51.00
2018-06-09T10:57:33.219Z,50.80
2018-06-09T11:00:01.503Z,51.60
2018-06-09T11:02:30.004Z,50.00
2018-06-09T11:04:58.403Z,50.20
2018-06-09T11:07:26.802Z,50.40
2018-06-09T11:09:55.195Z,50.40
2018-06-09T11:12:23.451Z,50.90
2018-06-09T11:14:51.818Z,51.60
2018-06-09T11:17:27.286Z,51.30
2018-06-09T11:19:56.784Z,51.60
2018-06-09T11:22:25.108Z,50.70
2018-06-09T11:24:53.421Z,50.90
2018-06-09T11:27:21.754Z,49.80
2018-06-09T11:29:50.279Z,50.50
2018-06-09T11:32:18.667Z,51.60
2018-06-09T11:34:46.953Z,52.30
2018-06-09T11:37:15.299Z,51.20
2018-06-09T11:39:43.598Z,51.60
2018-06-09T11:42:12.315Z,52.20
2018-06-09T11:44:40.615Z,51.30
2018-06-09T11:47:08.918Z,51.00
2018-06-09T11:49:37.411Z,50.80
2018-06-09T11:52:06.086Z,50.50
2018-06-09T11:54:34.346Z,50.50
2018-06-09T11:57:03.342Z,50.50
2018-06-09T11:59:31.815Z,49.60
2018-06-09T12:02:00.370Z,49.90
2018-06-09T12:04:28.644Z,49.30
2018-06-09T12:06:56.937Z,48.90
2018-06-09T12:09:25.199Z,48.60
2018-06-09T12:11:53.922Z,49.00
2018-06-09T12:14:22.195Z,49.50
2018-06-09T12:16:50.410Z,48.70
2018-06-09T12:19:18.709Z,48.30
2018-06-09T12:24:14.973Z,48.30
2018-06-09T12:26:43.252Z,47.70
2018-06-09T12:29:11.538Z,47.00
2018-06-09T12:31:39.815Z,46.90
2018-06-09T12:34:08.161Z,46.80
2018-06-09T12:36:36.542Z,46.60
2018-06-09T12:39:07.069Z,46.60
2018-06-09T12:41:35.437Z,46.70
2018-06-09T12:44:03.721Z,47.40
2018-06-09T12:46:32.030Z,47.70
2018-06-09T12:49:00.598Z,47.40
2018-06-09T12:51:29.221Z,47.10
2018-06-09T12:53:57.597Z,47.50
2018-06-09T12:56:25.998Z,48.50
2018-06-09T12:58:54.371Z,48.90
2018-06-09T13:01:22.927Z,49.60
2018-06-09T13:03:51.206Z,49.80
2018-06-09T13:06:22.598Z,50.10
2018-06-09T13:08:50.839Z,50.20
2018-06-09T13:11:19.167Z,50.60
2018-06-09T13:13:48.301Z,50.10
2018-06-09T13:16:16.597Z,50.00
2018-06-09T13:18:44.914Z,49.40
2018-06-09T13:21:13.332Z,49.10
2018-06-09T13:23:41.575Z,48.90
2018-06-09T13:26:09.945Z,48.90
2018-06-09T13:28:39.012Z,49.70
2018-06-09T13:31:07.334Z,50.10
2018-06-09T13:33:35.756Z,49.90
2018-06-09T13:36:04.144Z,49.20
2018-06-09T13:38:32.535Z,49.50
2018-06-09T13:41:00.942Z,49.30
2018-06-09T13:43:29.262Z,49.20
2018-06-09T13:45:57.683Z,49.30
2018-06-09T13:48:25.945Z,49.20
2018-06-09T13:50:54.280Z,49.30
2018-06-09T13:53:22.586Z,49.40
2018-06-09T13:55:50.842Z,49.80
2018-06-09T13:58:19.178Z,50.10
2018-06-09T14:00:47.605Z,49.40
2018-06-09T14:03:15.871Z,48.90
2018-06-09T14:05:44.476Z,48.70
2018-06-09T14:08:12.747Z,48.60
2018-06-09T14:10:40.987Z,48.80
2018-06-09T14:13:09.258Z,49.40
2018-06-09T14:15:37.590Z,49.60
2018-06-09T14:18:05.832Z,49.40
2018-06-09T14:20:34.190Z,49.50
2018-06-09T14:23:02.459Z,49.80
2018-06-09T14:25:31.732Z,50.30
2018-06-09T14:28:00.018Z,50.40
2018-06-09T14:30:28.350Z,50.80
2018-06-09T14:32:56.603Z,50.90
2018-06-09T14:35:25.045Z,50.80
2018-06-09T14:37:53.406Z,50.30
2018-06-09T14:40:21.693Z,50.40
2018-06-09T14:42:49.982Z,50.80
2018-06-09T14:45:18.247Z,51.60
2018-06-09T14:47:47.174Z,51.80
2018-06-09T14:50:15.406Z,51.70
2018-06-09T14:52:43.605Z,51.50
2018-06-09T14:55:12.091Z,51.40
2018-06-09T14:57:40.566Z,51.30
2018-06-09T15:00:08.942Z,51.30
2018-06-09T15:02:37.276Z,50.80
2018-06-09T15:05:05.522Z,50.20
2018-06-09T15:07:33.774Z,50.50
2018-06-09T15:10:02.050Z,50.40
2018-06-09T15:12:30.387Z,50.50
2018-06-09T15:14:58.870Z,50.60
2018-06-09T15:17:27.229Z,50.70
2018-06-09T15:19:55.558Z,51.20
2018-06-09T15:22:23.856Z,51.00
2018-06-09T15:24:52.122Z,50.80
2018-06-09T15:27:20.490Z,50.80
2018-06-09T15:29:48.744Z,51.00
2018-06-09T15:32:16.977Z,51.30
2018-06-09T15:34:46.090Z,50.90
2018-06-09T15:37:14.592Z,50.80
2018-06-09T15:39:42.857Z,50.40
2018-06-09T15:42:11.097Z,50.60
2018-06-09T15:44:39.737Z,50.20
2018-06-09T15:47:08.012Z,50.30
2018-06-09T15:49:36.287Z,50.50
2018-06-09T15:52:04.577Z,50.70
2018-06-09T15:54:32.943Z,50.70
2018-06-09T15:57:01.415Z,50.60
2018-06-09T15:59:30.818Z,50.30
2018-06-09T16:01:59.061Z,49.80
2018-06-09T16:04:27.387Z,49.70
2018-06-09T16:06:55.720Z,49.70
2018-06-09T16:09:23.997Z,49.80
2018-06-09T16:11:52.233Z,50.00
2018-06-09T16:14:20.579Z,50.00
2018-06-09T16:16:49.244Z,49.70
2018-06-09T16:19:17.510Z,49.60
2018-06-09T16:24:13.790Z,50.20
2018-06-09T16:26:42.026Z,50.40
2018-06-09T16:29:10.343Z,50.40
2018-06-09T16:31:39.001Z,50.40
2018-06-09T16:34:07.266Z,50.40
2018-06-09T16:36:35.587Z,50.30
2018-06-09T16:39:05.679Z,50.40
2018-06-09T16:41:34.962Z,50.50
2018-06-09T16:44:03.324Z,50.30
2018-06-09T16:46:31.599Z,50.40
2018-06-09T16:48:59.990Z,50.50
2018-06-09T16:51:28.293Z,50.40
2018-06-09T16:53:56.613Z,50.30
2018-06-09T16:56:24.895Z,50.20
2018-06-09T16:58:53.136Z,49.80
2018-06-09T17:01:21.458Z,49.60
2018-06-09T17:03:49.737Z,49.20
2018-06-09T17:06:18.038Z,49.60
2018-06-09T17:08:46.315Z,49.60
2018-06-09T17:11:14.622Z,50.80
2018-06-09T17:13:45.134Z,50.40
2018-06-09T17:16:13.931Z,50.90
2018-06-09T17:18:42.234Z,50.80
2018-06-09T17:21:10.549Z,50.90
2018-06-09T17:23:38.850Z,50.90
2018-06-09T17:26:07.532Z,50.80
2018-06-09T17:28:35.882Z,51.20
2018-06-09T17:31:04.265Z,51.10
2018-06-09T17:33:32.571Z,51.20
2018-06-09T17:36:00.928Z,51.30
2018-06-09T17:38:29.584Z,51.40
2018-06-09T17:40:57.967Z,51.50
2018-06-09T17:43:26.219Z,51.50
2018-06-09T17:45:54.490Z,51.10
2018-06-09T17:48:22.737Z,51.10
2018-06-09T17:50:50.994Z,51.50
2018-06-09T17:53:19.305Z,51.60
2018-06-09T17:55:47.592Z,51.60
2018-06-09T17:58:16.236Z,51.80
2018-06-09T18:00:44.510Z,51.90
2018-06-09T18:03:12.842Z,52.20
2018-06-09T18:05:42.022Z,52.70
2018-06-09T18:08:10.222Z,53.00
2018-06-09T18:10:38.656Z,53.40
2018-06-09T18:13:06.991Z,53.70
2018-06-09T18:15:35.425Z,54.00
2018-06-09T18:18:03.833Z,54.20
2018-06-09T18:20:32.588Z,54.10
2018-06-09T18:23:00.996Z,54.10
2018-06-09T18:25:29.235Z,54.30
2018-06-09T18:27:57.838Z,54.60
2018-06-09T18:30:26.095Z,54.50
2018-06-09T18:32:54.343Z,55.00
2018-06-09T18:35:22.796Z,55.00
2018-06-09T18:37:51.177Z,55.40
2018-06-09T18:40:19.911Z,55.50
2018-06-09T18:42:48.234Z,55.60
2018-06-09T18:45:16.559Z,55.70
2018-06-09T18:47:45.091Z,55.80
2018-06-09T18:50:13.456Z,55.70
2018-06-09T18:52:41.807Z,55.70
2018-06-09T18:55:10.423Z,55.60
2018-06-09T18:57:38.703Z,55.80
2018-06-09T19:00:07.686Z,56.00
2018-06-09T19:02:36.017Z,56.10
2018-06-09T19:05:04.315Z,56.30
2018-06-09T19:07:32.822Z,56.50
2018-06-09T19:10:01.186Z,56.80
2018-06-09T19:12:29.505Z,57.00
2018-06-09T19:14:59.482Z,57.20
2018-06-09T19:17:28.096Z,57.50
2018-06-09T19:19:57.759Z,57.60
2018-06-09T19:22:26.013Z,57.90
2018-06-09T19:24:54.318Z,58.00
2018-06-09T19:27:22.639Z,58.10
2018-06-09T19:29:50.985Z,58.30
2018-06-09T19:32:23.511Z,58.40
2018-06-09T19:34:52.205Z,58.50
2018-06-09T19:37:23.887Z,58.80
2018-06-09T19:39:55.080Z,59.00
2018-06-09T19:42:24.105Z,59.10
2018-06-09T19:44:52.433Z,59.30
2018-06-09T19:47:21.829Z,59.50
2018-06-09T19:49:51.602Z,59.50
2018-06-09T19:52:20.072Z,59.90
2018-06-09T19:54:48.979Z,60.00
2018-06-09T19:57:17.385Z,60.10
2018-06-09T19:59:46.604Z,60.10
2018-06-09T20:02:14.908Z,60.30
2018-06-09T20:04:43.178Z,60.20
2018-06-09T20:07:11.534Z,60.10
2018-06-09T20:09:39.867Z,60.30
2018-06-09T20:12:08.662Z,60.40
2018-06-09T20:14:37.101Z,60.40
2018-06-09T20:17:05.464Z,60.30
2018-06-09T20:19:34.429Z,60.50
2018-06-09T20:22:02.758Z,60.70
2018-06-09T20:24:31.726Z,60.80
2018-06-09T20:26:59.982Z,61.20
2018-06-09T20:29:28.406Z,60.60
2018-06-09T20:31:56.842Z,60.70
2018-06-09T20:34:25.905Z,60.80
2018-06-09T20:36:54.646Z,61.00
2018-06-09T20:39:22.930Z,61.20
2018-06-09T20:41:51.218Z,61.20
2018-06-09T20:44:19.501Z,61.40
2018-06-09T20:46:47.806Z,61.70
2018-06-09T20:49:16.053Z,61.80
2018-06-09T20:51:44.419Z,61.90
2018-06-09T20:54:12.700Z,62.20
2018-06-09T20:56:41.250Z,62.30
2018-06-09T20:59:09.533Z,62.30
2018-06-09T21:01:37.831Z,62.30
2018-06-09T21:04:06.093Z,62.20
2018-06-09T21:06:34.395Z,62.10
2018-06-09T21:09:04.475Z,62.20
2018-06-09T21:11:32.718Z,61.90
2018-06-09T21:14:00.966Z,61.90
2018-06-09T21:16:29.299Z,61.90
2018-06-09T21:18:57.600Z,62.80
2018-06-09T21:21:25.866Z,62.00
2018-06-09T21:23:54.194Z,62.20
2018-06-09T21:26:23.676Z,62.40
2018-06-09T21:28:55.033Z,62.50
2018-06-09T21:31:28.845Z,62.60
2018-06-09T21:34:08.525Z,62.70
2018-06-09T21:36:42.173Z,62.90
2018-06-09T21:39:17.771Z,63.10
2018-06-09T21:41:51.657Z,63.30
2018-06-09T21:44:25.413Z,63.40
2018-06-09T21:46:53.772Z,64.00
2018-06-09T21:49:22.118Z,64.60
2018-06-09T21:51:50.338Z,65.00
2018-06-09T21:54:18.654Z,66.10
2018-06-09T21:56:46.908Z,66.00
2018-06-09T21:59:15.292Z,66.50
2018-06-09T22:01:43.598Z,67.10
2018-06-09T22:04:11.889Z,68.00
2018-06-09T22:06:40.217Z,68.50
2018-06-09T22:09:08.471Z,70.20
2018-06-09T22:11:36.730Z,70.90
2018-06-09T22:14:05.032Z,71.20
2018-06-09T22:16:33.257Z,70.90
2018-06-09T22:19:01.486Z,70.60
2018-06-09T22:21:29.721Z,70.40
2018-06-09T22:23:58.004Z,70.30
2018-06-09T22:26:26.298Z,70.10
2018-06-09T22:28:54.556Z,70.60
2018-06-09T22:31:22.906Z,70.00
2018-06-09T22:33:51.110Z,69.00
2018-06-09T22:36:19.407Z,68.30
2018-06-09T22:38:47.689Z,67.80
2018-06-09T22:41:15.934Z,67.60
2018-06-09T22:43:44.285Z,67.30
2018-06-09T22:46:12.534Z,67.90
2018-06-09T22:48:40.780Z,68.90
2018-06-09T22:51:09.066Z,69.50
2018-06-09T22:53:38.915Z,70.50
2018-06-09T22:56:07.491Z,70.60
2018-06-09T22:58:35.713Z,70.30
2018-06-09T23:01:03.928Z,70.30
2018-06-09T23:03:32.214Z,70.60
2018-06-09T23:06:00.595Z,70.90
2018-06-09T23:08:28.827Z,71.10
2018-06-09T23:10:57.111Z,71.30
2018-06-09T23:13:25.526Z,71.70
2018-06-09T23:15:53.795Z,71.50
2018-06-09T23:18:22.063Z,71.30
2018-06-09T23:20:50.355Z,70.90
2018-06-09T23:23:18.626Z,71.40
2018-06-09T23:25:46.864Z,72.50
2018-06-09T23:28:15.171Z,72.40
2018-06-09T23:30:43.461Z,72.60
2018-06-09T23:33:11.745Z,73.80
2018-06-09T23:35:40.049Z,75.30
2018-06-09T23:38:08.261Z,76.10
2018-06-09T23:40:36.536Z,77.90
2018-06-09T23:43:04.761Z,78.00
2018-06-09T23:45:33.077Z,78.00
2018-06-09T23:48:01.294Z,77.80
2018-06-09T23:50:29.503Z,78.50
2018-06-09T23:52:57.799Z,79.30
2018-06-09T23:55:26.043Z,80.20
2018-06-09T23:57:54.334Z,80.70
